»·PEaware :: N326MC KCRQ-KPSP

N326MC :: KCRQ-KPSP

FLIGHT INFORMATION

Flight Status: Arrived
Operator: Privately registered:
United States
More flights under this callsign
Pilot: Anonymous 5456 (5456)
Aircraft: BEECH AIRCRAFT BARON
(BE58)
More flights by this aircraft type
Origin: KCRQ McClellan-Palomar
United States
Destination: KPSP Palm Springs Intl
United States
More flights between these airports :: More routes between these airports
Route: +JLI V208 TRM V137 PSP
File this flight plan on PilotEdge
Remarks:
Altitude:
(Current/Filed)
10,000ft
Speed:
(Current/Filed)
180kts
Departed: 12-Sep-17 10:09 AM
Arrived: 12-Sep-17 10:45 AM
Distance/Time
Traveled:
57nm/0:36
Distance/Time
To Go:
Arrived

Flight Plot

Page will automatically refresh every two minutes.

Flight plan parsing failed; only flown route is shown


Map Options




Map Legend


Flown Route
Filed Route
Departure Airport
Arrival Airport
Navaid (VOR, NDB)
Fix

Horizontal Profiles

Position Reports

Time Latitude Longitude Heading Altitude Ground
Speed
12-Sep-17 09:58 33.130007 -117.277143 171 334ft 0kts
12-Sep-17 09:59 33.130007 -117.277143 171 334ft 0kts
12-Sep-17 10:00 33.130007 -117.277143 171 334ft 0kts
12-Sep-17 10:01 33.130007 -117.277143 171 334ft 0kts
12-Sep-17 10:02 33.130007 -117.277143 171 334ft 0kts
12-Sep-17 10:03 33.130007 -117.277143 171 334ft 0kts
12-Sep-17 10:04 33.130007 -117.277143 171 334ft 0kts
12-Sep-17 10:05 33.130007 -117.277143 172 334ft 0kts
12-Sep-17 10:06 33.130007 -117.277143 171 334ft 0kts
12-Sep-17 10:07 33.130007 -117.277143 171 334ft 0kts
12-Sep-17 10:08 33.130007 -117.277143 171 334ft 0kts
12-Sep-17 10:09 33.129992 -117.277141 171 334ft 2kts
12-Sep-17 10:10 33.130128 -117.273625 79 334ft 15kts
12-Sep-17 10:11 33.130409 -117.272785 127 334ft 0kts
12-Sep-17 10:12 33.130235 -117.272532 146 334ft 7kts
12-Sep-17 10:13 33.129038 -117.275213 259 334ft 71kts
12-Sep-17 10:14 33.122771 -117.316523 261 1579ft 139kts
12-Sep-17 10:15 33.116945 -117.361787 261 2974ft 154kts
12-Sep-17 10:16 33.085035 -117.371343 110 2975ft 198kts
12-Sep-17 10:17 33.073981 -117.308377 102 3649ft 177kts
12-Sep-17 10:18 33.065952 -117.252415 88 4791ft 172kts
12-Sep-17 10:19 33.072992 -117.195617 83 5779ft 177kts
12-Sep-17 10:20 33.079928 -117.137074 82 6751ft 179kts
12-Sep-17 10:21 33.109287 -117.093522 84 7612ft 178kts
12-Sep-17 10:22 33.113856 -117.035657 90 8468ft 174kts
12-Sep-17 10:23 33.117291 -116.977539 90 9044ft 186kts
12-Sep-17 10:24 33.121056 -116.912381 88 9047ft 203kts
12-Sep-17 10:25 33.125014 -116.846749 88 9045ft 191kts
12-Sep-17 10:26 33.128812 -116.784625 88 9048ft 185kts
12-Sep-17 10:27 33.132429 -116.723852 88 9048ft 183kts
12-Sep-17 10:28 33.136000 -116.663253 88 9048ft 183kts
12-Sep-17 10:29 33.139523 -116.603091 88 9046ft 183kts
12-Sep-17 10:30 33.173529 -116.557988 41 9013ft 194kts
12-Sep-17 10:31 33.216752 -116.519897 40 9007ft 194kts
12-Sep-17 10:32 33.260352 -116.481933 40 9072ft 191kts
12-Sep-17 10:33 33.303543 -116.444295 40 9041ft 194kts
12-Sep-17 10:34 33.347303 -116.406148 40 9017ft 195kts
12-Sep-17 10:35 33.391006 -116.367985 40 9011ft 194kts
12-Sep-17 10:36 33.433837 -116.330559 40 9015ft 194kts
12-Sep-17 10:37 33.477317 -116.292519 40 9014ft 194kts
12-Sep-17 10:38 33.520818 -116.254428 40 9014ft 194kts
12-Sep-17 10:39 33.564628 -116.215970 40 8968ft 196kts
12-Sep-17 10:40 33.611911 -116.192002 328 8968ft 208kts
12-Sep-17 10:41 33.651861 -116.242598 313 8974ft 210kts
12-Sep-17 10:42 33.690561 -116.294085 313 8170ft 199kts
12-Sep-17 10:43 33.723064 -116.339433 313 6252ft 150kts
12-Sep-17 10:44 33.744686 -116.374402 291 4058ft 128kts
12-Sep-17 10:45 33.754688 -116.412766 291 2524ft 124kts
12-Sep-17 10:46 33.770845 -116.448729 307 1810ft 125kts
12-Sep-17 10:47 33.796533 -116.474898 325 1255ft 112kts
12-Sep-17 10:48 33.819202 -116.495381 324 616ft 96kts
12-Sep-17 10:49 33.830000 -116.504374 56 480ft 3kts
12-Sep-17 10:50 33.827526 -116.501866 145 480ft 17kts
12-Sep-17 10:51 33.824693 -116.499060 138 480ft 7kts

Navigation Log

Ident Type
Flight plan parsing failed, navigation log unavailable